Airfield :
LOGIN :

Register | Disclaimer

   EN    FR    IT 

 










Legend :    VFR   Marginal VFR   IFR   Intensive IFR   Very Intensive IFR
Visi :
Ceiling :
>= 8 km
>= 3000ft
5 to 8 km
1000 to 3000 ft
1500m to 5 km
500 to 1000 ft
800 to 1500m
200 to 500 ft
< 800m
< 200 ft
Symbols :   Thunderstorms  Fog  Heavy snow  Heavy precipitations  Wind > 20 kt
SIGMETs :     Misc.  Thunderstorms  Icing  Turbulence  Mountain Waves  Volcanic Ashes







- Airport Elevation : 681 ft
- IATA code : LBA
- Download approach charts


EGNM - Leeds Bradford

CURRENT METAR :
  • 181520Z 26008KT 220V280 9999 FEW046 18/09 Q1012

EXPIRED METARs :
  • 181450Z 25006KT 200V280 9999 SCT042 18/08 Q1012
  • 181420Z 23007KT 170V280 9999 SCT045 18/09 Q1012
  • 181350Z 23007KT 150V280 9999 FEW043 18/09 Q1012
  • 181320Z 21007KT 140V250 9999 SCT043 18/08 Q1013
  • 181250Z 23008KT 180V260 9999 SCT039 18/09 Q1013

TAF TAF EGNM
Valid from the 18 at 12:00 until the 19 at 12:00 UTC


181103Z 1812/1912 26006KT 9999 SCT030
PROB30
TEMPO 1821/1905 7000 RA BKN009
TEMPO 1905/1912 7000 RA BKN009
PROB40
TEMPO 1905/1912 4000 RADZ BR BKN004
ATIS : +44 113 250 9696 (x2489)
No reported NOTAMs for that airfield.



MET'MAP, your aeronautical weather chart ! - Copyright ORBIFLY December 2007 - Disclaimer

ORBIFLY MET'MAP TEAM :

Programming & Development : Alexandra Zaïnal
Concept & Development : Baudouin d'Aumeries
Co-Development & Prog : Marc-Olivier Méhu
Technical & hardware support : Manuel Goepfert

Contact : metmap@orbifly.com




SOURCES & CREDITS :

   NOAA